Time;durP1;ratioP1;P1;durP2;ratioP2;P2;SDS_P1;SDS_P2;PMS_P1;PMS_P2;Temp;Humidity;BMP_temperature;BMP_pressure;BME280_temperature;BME280_humidity;BME280_pressure;Samples;Min_cycle;Max_cycle;Signal;HPM_P1;HPM_P2
2023/01/06 00:03:58;;;;;;;;;;;;;;;7.92;100.00;96352.06;10464663;28;2482;-77
2023/01/06 00:09:01;;;;;;;;;;;;;;;7.89;100.00;96355.22;10434949;28;2430;-77
2023/01/06 00:14:04;;;;;;;;;;;;;;;7.94;100.00;96348.09;10433289;28;2453;-76
2023/01/06 00:19:07;;;;;;;;;;;;;;;7.94;100.00;96347.28;10434129;28;2457;-77
2023/01/06 00:24:11;;;;;;;;;;;;;;;8.02;100.00;96331.66;10435716;28;2705;-76
2023/01/06 00:29:14;;;;;;;;;;;;;;;8.01;100.00;96324.66;10440839;28;2418;-75
2023/01/06 00:34:17;;;;;;;;;;;;;;;7.91;100.00;96324.50;10433519;28;2475;-76
2023/01/06 00:39:20;;;;;;;;;;;;;;;7.74;100.00;96323.66;10431822;28;2423;-75
2023/01/06 00:44:23;;;;;;;;;;;;;;;7.78;100.00;96324.81;10429154;28;2490;-76
2023/01/06 00:49:27;;;;;;;;;;;;;;;7.80;100.00;96333.41;10434424;28;2436;-78
2023/01/06 00:54:30;;;;;;;;;;;;;;;7.78;100.00;96324.81;10428854;28;2431;-78
2023/01/06 00:59:33;;;;;;;;;;;;;;;7.67;100.00;96323.81;10429769;28;2499;-77
2023/01/06 01:04:36;;;;;;;;;;;;;;;7.65;100.00;96303.72;10435214;28;2589;-77
2023/01/06 01:09:39;;;;;;;;;;;;;;;7.57;100.00;96303.06;10423835;28;2518;-76
2023/01/06 01:14:42;;;;;;;;;;;;;;;7.53;100.00;96303.78;10424150;28;2598;-78
2023/01/06 01:19:45;;;;;;;;;;;;;;;7.51;100.00;96309.38;10429216;28;2491;-78
2023/01/06 01:24:48;;;;;;;;;;;;;;;7.50;100.00;96302.38;10424723;28;2481;-76
2023/01/06 01:29:51;;;;;;;;;;;;;;;7.50;100.00;96296.22;10420023;28;2457;-78
2023/01/06 01:34:54;;;;;;;;;;;;;;;7.37;100.00;96297.34;10422137;28;2438;-77
2023/01/06 01:39:57;;;;;;;;;;;;;;;7.22;100.00;96289.84;10419793;28;2527;-77
2023/01/06 01:45:01;;;;;;;;;;;;;;;7.13;100.00;96293.19;10426910;28;2843;-78
2023/01/06 01:50:04;;;;;;;;;;;;;;;7.16;100.00;96293.50;10422665;28;2451;-76
2023/01/06 01:55:07;;;;;;;;;;;;;;;7.20;100.00;96296.50;10418944;28;2439;-78
2023/01/06 02:00:10;;;;;;;;;;;;;;;7.17;100.00;96297.78;10414218;28;2494;-77
2023/01/06 02:05:13;;;;;;;;;;;;;;;7.04;100.00;96292.72;10430184;28;2487;-76
2023/01/06 02:10:16;;;;;;;;;;;;;;;6.88;100.00;96294.31;10424610;28;2472;-78
2023/01/06 02:15:20;;;;;;;;;;;;;;;6.72;100.00;96279.00;10425171;28;2400;-78
2023/01/06 02:20:23;;;;;;;;;;;;;;;6.59;100.00;96273.94;10427042;28;2775;-77
2023/01/06 02:25:26;;;;;;;;;;;;;;;6.47;100.00;96272.09;10418768;28;2417;-77
2023/01/06 02:30:29;;;;;;;;;;;;;;;6.32;100.00;96269.09;10421625;28;2425;-78
2023/01/06 02:35:33;;;;;;;;;;;;;;;6.22;100.00;96263.53;10420759;28;2489;-77
2023/01/06 02:40:36;;;;;;;;;;;;;;;6.10;100.00;96260.06;10416637;28;2436;-77
2023/01/06 02:45:39;;;;;;;;;;;;;;;6.02;100.00;96249.75;10420110;28;2404;-76
2023/01/06 02:50:42;;;;;;;;;;;;;;;5.93;100.00;96250.09;10420787;28;2471;-77
2023/01/06 02:55:44;;;;;;;;;;;7.10;99.90;;;5.94;100.00;96243.72;10425851;28;2491;-77
2023/01/06 03:00:48;;;;;;;;;;;;;;;5.85;100.00;96242.41;10419126;28;2545;-77
2023/01/06 03:05:50;;;;;;;;;;;7.00;99.90;;;5.81;100.00;96240.44;10424388;28;2418;-77
2023/01/06 03:10:53;;;;;;;;;;;7.10;99.90;;;5.76;100.00;96226.97;10414581;28;2428;-76
2023/01/06 03:15:56;;;;;;;;;;;7.00;99.90;;;5.65;100.00;96229.41;10425701;28;2469;-76
2023/01/06 03:20:59;;;;;;;;;;;;;;;5.57;100.00;96231.59;10422486;28;2430;-76
2023/01/06 03:26:02;;;;;;;;;;;;;;;5.55;100.00;96225.69;10426915;28;2501;-76
2023/01/06 03:31:05;;;;;;;;;;;;;;;5.48;100.00;96225.00;10423636;28;2563;-77
2023/01/06 03:36:08;;;;;;;;;;;;;;;5.45;100.00;96225.44;10424122;28;2505;-77
2023/01/06 03:41:11;;;;;;;;;;;;;;;5.36;100.00;96224.97;10425678;28;2545;-77
2023/01/06 03:46:14;;;;;;;;;;;;;;;5.39;100.00;96222.66;10421888;28;2472;-75
2023/01/06 03:51:18;;;;;;;;;;;;;;;5.29;100.00;96226.94;10417552;28;2497;-78
2023/01/06 03:56:21;;;;;;;;;;;;;;;5.24;100.00;96234.81;10436954;28;2416;-77
2023/01/06 04:01:25;;;;;;;;;;;;;;;5.17;100.00;96232.25;10426275;28;2812;-77
2023/01/06 04:06:28;;;;;;;;;;;;;;;5.19;100.00;96230.16;10435182;28;2464;-76
2023/01/06 04:16:51;;;;;;;;;;;;;;;5.21;100.00;96225.41;10434017;28;2566;-75
2023/01/06 04:21:54;;;;;;;;;;;;;;;5.10;100.00;96231.53;10432309;28;2499;-78
2023/01/06 04:26:57;;;;;;;;;;;;;;;5.03;100.00;96236.97;10432568;28;2489;-77
2023/01/06 04:32:01;;;;;;;;;;;;;;;4.95;100.00;96239.09;10426292;28;2432;-77
2023/01/06 04:37:04;;;;;;;;;;;;;;;4.93;100.00;96243.88;10425175;28;2482;-77
2023/01/06 04:42:07;;;;;;;;;;;;;;;4.84;100.00;96240.72;10430303;28;2445;-76
2023/01/06 04:47:10;;;;;;;;;;;;;;;4.81;100.00;96241.16;10421604;28;2576;-76
2023/01/06 04:52:13;;;;;;;;;;;;;;;4.73;100.00;96244.94;10430872;28;2502;-75
2023/01/06 04:57:16;;;;;;;;;;;;;;;4.68;100.00;96236.81;10433163;28;2525;-77
2023/01/06 05:02:19;;;;;;;;;;;;;;;4.68;100.00;96236.81;10433955;28;2556;-78
2023/01/06 05:07:22;;;;;;;;;;;;;;;4.63;100.00;96231.34;10431331;28;2589;-78
2023/01/06 05:12:25;;;;;;;;;;;;;;;4.62;100.00;96232.38;10435077;28;2487;-77
2023/01/06 05:17:29;;;;;;;;;;;;;;;4.53;100.00;96226.56;10437254;28;2466;-77
2023/01/06 05:22:32;;;;;;;;;;;;;;;4.53;100.00;96236.41;10426451;28;2606;-76
2023/01/06 05:27:35;;;;;;;;;;;;;;;4.57;100.00;96234.91;10426046;28;2477;-76
2023/01/06 05:32:38;;;;;;;;;;;;;;;4.47;100.00;96229.31;10429470;28;2492;-76
2023/01/06 05:37:41;;;;;;;;;;;;;;;4.49;100.00;96237.88;10428478;28;2461;-76
2023/01/06 05:42:44;;;;;;;;;;;;;;;4.49;100.00;96228.03;10424013;28;2482;-77
2023/01/06 05:47:47;;;;;;;;;;;;;;;4.52;100.00;96234.78;10428727;28;2490;-77
2023/01/06 05:52:50;;;;;;;;;;;;;;;4.50;100.00;96223.53;10433980;28;2470;-78
2023/01/06 05:57:53;;;;;;;;;;;;;;;4.45;100.00;96231.38;10427098;28;2525;-76
2023/01/06 06:02:57;;;;;;;;;;;;;;;4.45;100.00;96220.72;10434040;28;2396;-75
2023/01/06 06:08:00;;;;;;;;;;;;;;;4.39;100.00;96232.25;10434911;28;2488;-78
2023/01/06 06:13:03;;;;;;;;;;;;;;;4.37;100.00;96234.34;10430794;28;2482;-75
2023/01/06 06:18:06;;;;;;;;;;;;;;;4.33;100.00;96240.13;10422917;28;2497;-78
2023/01/06 06:23:09;;;;;;;;;;;;;;;4.27;100.00;96241.00;10423167;28;2589;-78
2023/01/06 06:28:12;;;;;;;;;;;;;;;4.32;100.00;96246.44;10418233;28;2501;-77
2023/01/06 06:33:15;;;;;;;;;;;;;;;4.22;100.00;96240.84;10419243;28;2498;-77
2023/01/06 06:38:18;;;;;;;;;;;;;;;4.24;100.00;96233.44;10419119;28;2542;-75
2023/01/06 06:43:21;;;;;;;;;;;;;;;4.25;100.00;96227.09;10425627;28;2650;-77
2023/01/06 06:48:24;;;;;;;;;;;5.40;99.90;;;4.21;100.00;96220.59;10425174;28;2485;-76
2023/01/06 06:53:27;;;;;;;;;;;5.60;99.90;;;4.27;100.00;96222.38;10423112;28;2438;-76
2023/01/06 06:58:29;;;;;;;;;;;5.50;99.90;;;4.31;100.00;96220.06;10426605;28;2669;-76
2023/01/06 07:03:32;;;;;;;;;;;5.50;99.90;;;4.28;100.00;96216.00;10421540;28;2483;-77
2023/01/06 07:08:35;;;;;;;;;;;5.50;99.90;;;4.36;100.00;96214.09;10424254;28;2628;-76
2023/01/06 07:13:37;;;;;;;;;;;5.50;99.90;;;4.33;100.00;96213.50;10421100;28;2494;-77
2023/01/06 07:18:40;;;;;;;;;;;5.60;99.90;;;4.41;100.00;96216.91;10424109;28;2454;-77
2023/01/06 07:23:43;;;;;;;;;;;5.60;99.90;;;4.53;100.00;96215.91;10419775;28;2433;-76
2023/01/06 07:28:46;;;;;;;;;;;5.70;99.90;;;4.64;100.00;96213.50;10426751;28;2475;-77
2023/01/06 07:33:48;;;;;;;;;;;5.80;99.90;;;4.73;100.00;96202.34;10427069;28;2470;-77
2023/01/06 07:38:51;;;;;;;;;;;5.90;99.90;;;4.75;100.00;96205.56;10427493;28;2485;-76
2023/01/06 07:43:54;;;;;;;;;;;5.90;99.90;;;4.83;100.00;96202.59;10432201;28;2503;-78
2023/01/06 07:48:57;;;;;;;;;;;6.00;99.90;;;4.93;100.00;96190.59;10435976;28;2453;-76
2023/01/06 07:54:00;;;;;;;;;;;6.10;99.90;;;5.02;100.00;96191.88;10433651;28;2502;-78
2023/01/06 07:59:03;;;;;;;;;;;6.10;99.90;;;5.07;100.00;96186.66;10440830;28;2417;-78
2023/01/06 08:04:06;;;;;;;;;;;6.20;99.90;;;5.09;100.00;96192.56;10440566;28;2484;-77
2023/01/06 08:09:08;;;;;;;;;;;6.20;99.90;;;5.20;100.00;96183.78;10443709;28;2428;-76
2023/01/06 08:14:11;;;;;;;;;;;6.20;99.90;;;5.19;100.00;96194.69;10444755;28;2830;-76
2023/01/06 08:19:14;;;;;;;;;;;6.30;99.90;;;5.19;100.00;96198.16;10430268;28;2541;-77
2023/01/06 08:24:16;;;;;;;;;;;6.30;99.90;;;5.30;100.00;96200.06;10420399;28;2458;-76
2023/01/06 08:29:19;;;;;;;;;;;6.30;99.90;;;5.32;100.00;96197.97;10430641;28;2455;-76
2023/01/06 08:34:22;;;;;;;;;;;6.40;99.90;;;5.40;100.00;96186.94;10425692;28;2475;-77
2023/01/06 08:39:24;;;;;;;;;;;6.40;99.90;;;5.49;100.00;96190.09;10423975;28;2435;-76
2023/01/06 08:44:27;;;;;;;;;;;6.50;99.90;;;5.58;100.00;96182.56;10435784;28;2508;-79
2023/01/06 08:49:30;;;;;;;;;;;6.60;99.90;;;5.70;100.00;96181.50;10431212;28;2479;-77
2023/01/06 08:54:33;;;;;;;;;;;6.70;99.90;;;5.85;100.00;96182.88;10428090;28;2504;-77
2023/01/06 08:59:35;;;;;;;;;;;6.90;99.90;;;5.98;100.00;96185.38;10426599;28;2242;-78
2023/01/06 09:04:38;;;;;;;;;;;6.90;99.90;;;6.08;100.00;96190.09;10425780;28;2506;-79
2023/01/06 09:09:41;;;;;;;;;;;7.00;99.90;;;6.15;100.00;96198.78;10421756;28;2512;-78
2023/01/06 09:14:43;;;;;;;;;;;7.10;99.90;;;6.18;100.00;96198.31;10425525;28;2421;-78
2023/01/06 09:19:46;;;;;;;;;;;7.20;99.90;;;6.31;100.00;96203.41;10428086;28;2453;-78
2023/01/06 09:24:49;;;;;;;;;;;7.30;99.90;;;6.48;100.00;96211.47;10423016;28;2453;-77
2023/01/06 09:29:52;;;;;;;;;;;7.30;99.90;;;6.66;100.00;96216.63;10433177;28;2502;-78
2023/01/06 09:34:54;;;;;;;;;;;7.60;99.90;;;6.81;100.00;96218.81;10430111;28;2481;-77
2023/01/06 09:39:58;;;;;;;;;;;7.70;99.90;;;6.95;100.00;96222.81;10423462;28;2404;-77
2023/01/06 09:45:00;;;;;;;;;;;7.90;99.90;;;7.15;100.00;96226.91;10430757;28;2494;-77
2023/01/06 09:50:03;;;;;;;;;;;8.00;99.90;;;7.24;100.00;96234.28;10430753;28;2506;-74
2023/01/06 09:55:06;;;;;;;;;;;8.10;99.90;;;7.39;100.00;96227.59;10433147;28;2426;-77
2023/01/06 10:00:09;;;;;;;;;;;8.40;99.90;;;7.69;100.00;96229.91;10427490;28;2449;-74
2023/01/06 10:05:12;;;;;;;;;;;8.40;99.90;;;7.86;100.00;96220.81;10420405;28;2475;-74
2023/01/06 10:10:15;;;;;;;;;;;;;;;8.03;100.00;96226.16;10416854;28;2487;-75
2023/01/06 10:15:18;;;;;;;;;;;8.80;99.90;;;8.12;100.00;96219.31;10426516;28;2487;-74
2023/01/06 10:20:20;;;;;;;;;;;9.00;99.90;;;8.19;100.00;96218.34;10420489;28;2473;-74
2023/01/06 10:25:24;;;;;;;;;;;9.10;99.90;;;8.38;100.00;96217.00;10426816;28;2498;-75
2023/01/06 10:30:27;;;;;;;;;;;9.30;99.90;;;8.38;100.00;96206.31;10431845;28;2544;-74
2023/01/06 10:35:35;;;;;;;;;;;9.40;99.90;;;8.46;100.00;96192.50;10414758;28;2545;-75
2023/01/06 10:40:38;;;;;;;;;;;9.40;99.90;;;8.59;100.00;96205.50;10419419;28;2575;-75
2023/01/06 10:45:40;;;;;;;;;;;9.50;99.90;;;8.59;100.00;96202.03;10420702;28;2406;-75
2023/01/06 10:50:43;;;;;;;;;;;9.60;99.90;;;8.67;100.00;96198.88;10419999;28;2493;-75
2023/01/06 10:55:46;;;;;;;;;;;9.60;99.90;;;8.51;100.00;96205.94;10424143;28;2427;-75
2023/01/06 11:00:49;;;;;;;;;;;9.70;99.90;;;8.73;100.00;96199.75;10428867;28;2388;-73
2023/01/06 11:05:51;;;;;;;;;;;9.70;99.90;;;8.72;100.00;96204.31;10429560;28;2438;-76
2023/01/06 11:10:55;;;;;;;;;;;9.70;99.90;;;8.82;100.00;96198.25;10432563;28;2580;-76
2023/01/06 11:15:58;;;;;;;;;;;9.80;99.90;;;8.83;100.00;96199.84;10430952;28;2488;-77
2023/01/06 11:21:01;;;;;;;;;;;9.80;99.90;;;8.87;100.00;96193.75;10425750;28;2511;-77
2023/01/06 11:26:04;;;;;;;;;;;9.90;99.90;;;8.89;100.00;96196.16;10432492;28;2475;-76
2023/01/06 11:31:06;;;;;;;;;;;9.90;99.90;;;8.82;100.00;96199.03;10431844;28;2486;-75
2023/01/06 11:36:09;;;;;;;;;;;9.90;99.90;;;8.73;100.00;96192.53;10428910;28;2527;-75
2023/01/06 11:41:12;;;;;;;;;;;9.80;99.90;;;8.74;100.00;96193.34;10430834;28;2482;-75
2023/01/06 11:46:15;;;;;;;;;;;9.80;99.90;;;8.70;100.00;96203.72;10429497;28;2499;-75
2023/01/06 11:51:18;;;;;;;;;;;9.70;99.90;;;8.63;100.00;96195.06;10426212;28;2461;-75
2023/01/06 11:56:20;;;;;;;;;;;9.70;99.90;;;8.52;100.00;96202.19;10432711;28;2479;-76
2023/01/06 12:01:23;;;;;;;;;;;9.60;99.90;;;8.55;100.00;96180.25;10430755;28;2482;-76
2023/01/06 12:06:26;;;;;;;;;;;9.50;99.90;;;8.70;100.00;96168.09;10433593;28;2492;-76
2023/01/06 12:11:29;;;;;;;;;;;9.70;99.90;;;8.66;100.00;96162.44;10436385;28;2488;-77
2023/01/06 12:16:31;;;;;;;;;;;9.70;99.90;;;8.69;100.00;96158.44;10431748;28;2548;-74
2023/01/06 12:21:35;;;;;;;;;;;9.70;99.90;;;8.92;100.00;96158.13;10428880;28;2263;-76
2023/01/06 12:26:38;;;;;;;;;;;9.90;99.90;;;9.03;100.00;96149.09;10431722;28;2495;-74
2023/01/06 12:31:41;;;;;;;;;;;9.90;99.90;;;9.09;100.00;96136.56;10426825;28;2198;-77
2023/01/06 12:36:47;;;;;;;;;;;;;;;9.19;100.00;96142.03;10423861;28;2205;-77
2023/01/06 12:41:50;;;;;;;;;;;10.00;99.90;;;9.37;100.00;96156.94;10431053;28;2306;-77
2023/01/06 12:46:52;;;;;;;;;;;10.10;99.90;;;9.47;100.00;96149.75;10444602;28;2203;-76
2023/01/06 12:51:55;;;;;;;;;;;10.30;99.90;;;9.64;100.00;96146.13;10431695;28;2276;-76
2023/01/06 12:56:58;;;;;;;;;;;10.40;99.90;;;9.67;100.00;96149.09;10428415;28;2167;-77
2023/01/06 13:02:01;;;;;;;;;;;10.60;99.90;;;9.41;100.00;96156.13;10423628;28;2177;-80
2023/01/06 13:07:03;;;;;;;;;;;10.50;99.90;;;9.33;100.00;96155.81;10425278;28;2212;-76
2023/01/06 13:12:06;;;;;;;;;;;10.40;99.90;;;9.22;100.00;96144.19;10424327;28;2205;-76
2023/01/06 13:17:09;;;;;;;;;;;10.30;99.90;;;9.19;100.00;96153.56;10428792;28;2149;-75
2023/01/06 13:22:12;;;;;;;;;;;10.30;99.90;;;9.29;100.00;96146.66;10418340;28;2235;-76
2023/01/06 13:27:15;;;;;;;;;;;10.20;99.90;;;9.24;100.00;96149.31;10429018;28;2341;-76
2023/01/06 13:32:18;;;;;;;;;;;10.20;99.90;;;9.20;100.00;96149.00;10423194;28;2182;-75
2023/01/06 13:37:21;;;;;;;;;;;10.20;99.90;;;9.18;100.00;96146.56;10426164;28;2159;-75
2023/01/06 13:42:24;;;;;;;;;;;10.20;99.90;;;9.18;100.00;96143.91;10420605;28;2192;-78
2023/01/06 13:47:26;;;;;;;;;;;10.20;99.90;;;9.13;100.00;96149.22;10431348;28;2172;-75
2023/01/06 13:52:29;;;;;;;;;;;10.20;99.90;;;9.20;100.00;96151.69;10435411;28;2208;-75
2023/01/06 13:57:32;;;;;;;;;;;10.10;99.90;;;9.33;100.00;96163.84;10440417;28;2153;-75
2023/01/06 14:02:34;;;;;;;;;;;10.20;99.90;;;9.36;100.00;96171.41;10427167;28;2185;-75
2023/01/06 14:07:38;;;;;;;;;;;10.30;99.90;;;9.19;100.00;96176.88;10424431;28;2153;-75
2023/01/06 14:12:40;;;;;;;;;;;10.20;99.90;;;9.08;100.00;96192.06;10423816;28;2206;-76
2023/01/06 14:17:45;;;;;;;;;;;10.10;99.90;;;9.03;100.00;96180.47;10419610;28;2204;-76
2023/01/06 14:22:48;;;;;;;;;;;10.10;99.90;;;8.96;100.00;96180.69;10421430;28;2265;-74
2023/01/06 14:27:51;;;;;;;;;;;10.00;99.90;;;8.91;100.00;96184.16;10419234;28;2222;-74
2023/01/06 14:32:54;;;;;;;;;;;9.90;99.90;;;8.87;100.00;96180.34;10420219;28;2225;-73
2023/01/06 14:37:56;;;;;;;;;;;9.90;99.90;;;8.79;100.00;96177.31;10432744;28;2167;-72
2023/01/06 14:42:59;;;;;;;;;;;9.80;99.90;;;8.80;100.00;96186.97;10415854;28;2168;-73
2023/01/06 14:48:01;;;;;;;;;;;9.80;99.90;;;8.84;100.00;96180.03;10426936;28;2144;-74
2023/01/06 14:53:04;;;;;;;;;;;9.80;99.90;;;8.74;100.00;96177.25;10422808;28;2396;-74
2023/01/06 14:58:07;;;;;;;;;;;9.80;99.90;;;8.76;100.00;96170.56;10417785;28;2119;-72
2023/01/06 15:03:10;;;;;;;;;;;9.80;99.90;;;8.80;100.00;96160.16;10430079;28;2236;-73
2023/01/06 15:08:16;;;;;;;;;;;9.80;99.90;;;8.82;100.00;96168.75;10429863;28;2165;-74
2023/01/06 15:13:19;;;;;;;;;;;9.80;99.90;;;8.84;100.00;96166.63;10432452;28;2200;-74
2023/01/06 15:18:22;;;;;;;;;;;9.90;99.90;;;8.77;100.00;96161.47;10428443;28;2288;-74
2023/01/06 15:23:25;;;;;;;;;;;9.80;99.90;;;8.79;100.00;96164.72;10432265;28;2230;-75
2023/01/06 15:28:27;;;;;;;;;;;9.80;99.90;;;8.72;100.00;96174.03;10425715;28;2169;-73
2023/01/06 15:33:30;;;;;;;;;;;9.80;99.90;;;8.60;100.00;96174.97;10416898;28;2224;-74
2023/01/06 15:38:33;;;;;;;;;;;9.70;99.90;;;8.56;100.00;96181.06;10423793;28;2200;-73
2023/01/06 15:43:36;;;;;;;;;;;9.60;99.90;;;8.55;100.00;96180.25;10424879;28;2318;-74
2023/01/06 15:48:40;;;;;;;;;;;9.60;99.90;;;8.58;100.00;96178.94;10431429;28;2195;-73
2023/01/06 15:53:43;;;;;;;;;;;9.60;99.90;;;8.55;100.00;96180.25;10435465;28;2222;-74
2023/01/06 15:58:45;;;;;;;;;;;9.60;99.90;;;8.51;100.00;96184.50;10431009;28;2181;-74
2023/01/06 16:03:48;;;;;;;;;;;9.60;99.90;;;8.48;100.00;96178.84;10429915;28;2246;-73
2023/01/06 16:08:50;;;;;;;;;;;9.50;99.90;;;8.51;100.00;96187.16;10432572;28;2141;-75
2023/01/06 16:13:53;;;;;;;;;;;9.50;99.90;;;8.51;100.00;96189.03;10437640;28;2193;-73
2023/01/06 16:18:56;;;;;;;;;;;9.50;99.90;;;8.39;100.00;96191.84;10432911;28;2194;-74
2023/01/06 16:23:59;;;;;;;;;;;9.50;99.90;;;8.44;100.00;96193.78;10428657;28;2131;-75
2023/01/06 16:29:01;;;;;;;;;;;9.50;99.90;;;8.41;100.00;96210.38;10433282;28;2473;-74
2023/01/06 16:34:04;;;;;;;;;;;9.40;99.90;;;8.42;100.00;96210.09;10421835;28;2217;-73
2023/01/06 16:39:06;;;;;;;;;;;9.40;99.90;;;8.35;100.00;96212.13;10433936;28;2083;-73
2023/01/06 16:44:09;;;;;;;;;;;9.40;99.90;;;8.28;100.00;96223.03;10428577;28;2262;-76
2023/01/06 16:49:12;;;;;;;;;;;9.40;99.90;;;8.27;100.00;96216.06;10426820;28;2202;-73
2023/01/06 16:54:17;;;;;;;;;;;9.30;99.90;;;8.24;100.00;96215.72;10421259;28;2304;-73
2023/01/06 16:59:20;;;;;;;;;;;9.30;99.90;;;8.32;100.00;96217.97;10428989;28;2210;-73
2023/01/06 17:04:23;;;;;;;;;;;9.30;99.90;;;8.29;100.00;96227.31;10422612;28;2212;-76
2023/01/06 17:09:28;;;;;;;;;;;9.30;99.90;;;8.32;100.00;96231.38;10431742;28;2609;-75
2023/01/06 17:14:31;;;;;;;;;;;9.30;99.90;;;8.21;100.00;96227.75;10429775;28;2198;-75
2023/01/06 17:19:34;;;;;;;;;;;9.30;99.90;;;8.18;100.00;96236.28;10425457;28;2143;-77
2023/01/06 17:24:36;;;;;;;;;;;9.30;99.90;;;8.20;100.00;96234.16;10424815;28;2197;-75
2023/01/06 17:29:39;;;;;;;;;;;9.40;99.90;;;8.23;100.00;96238.22;10426112;28;2596;-75
2023/01/06 17:34:42;;;;;;;;;;;9.20;99.90;;;8.13;100.00;96244.22;10428295;28;2119;-74
2023/01/06 17:39:44;;;;;;;;;;;9.20;99.90;;;8.17;100.00;96257.94;10429122;28;2096;-75
2023/01/06 17:44:47;;;;;;;;;;;9.20;99.90;;;8.18;100.00;96249.66;10427457;28;2218;-73
2023/01/06 17:49:50;;;;;;;;;;;9.20;99.90;;;8.19;100.00;96250.47;10429894;28;2182;-75
2023/01/06 18:00:12;;;;;;;;;;;9.20;99.90;;;8.12;100.00;96269.38;10433761;28;2169;-72
2023/01/06 18:05:15;;;;;;;;;;;9.20;99.90;;;8.17;100.00;96274.81;10429916;28;2271;-73
2023/01/06 18:10:18;;;;;;;;;;;9.20;99.90;;;8.11;100.00;96273.94;10431499;28;2188;-73
2023/01/06 18:15:20;;;;;;;;;;;9.20;99.90;;;8.18;100.00;96272.97;10431179;28;2158;-73
2023/01/06 18:20:23;;;;;;;;;;;9.20;99.90;;;8.13;100.00;96279.03;10431722;28;2195;-75
2023/01/06 18:25:26;;;;;;;;;;;9.20;99.90;;;8.13;100.00;96282.53;10438326;28;2202;-75
2023/01/06 18:30:29;;;;;;;;;;;9.20;99.90;;;8.16;100.00;96283.91;10428727;28;2185;-74
2023/01/06 18:35:33;;;;;;;;;;;9.20;99.90;;;8.15;100.00;96281.50;10434249;28;2106;-75
2023/01/06 18:40:36;;;;;;;;;;;9.20;99.90;;;8.13;100.00;96287.88;10432667;28;2192;-74
2023/01/06 18:45:39;;;;;;;;;;;9.20;99.90;;;8.18;100.00;96286.34;10433975;28;2539;-73
2023/01/06 18:50:42;;;;;;;;;;;9.20;99.90;;;8.10;100.00;96283.03;10425818;28;2194;-73
2023/01/06 18:55:45;;;;;;;;;;;9.20;99.90;;;8.09;100.00;96278.75;10423588;28;2199;-74
2023/01/06 19:00:47;;;;;;;;;;;9.10;99.90;;;8.11;100.00;96290.00;10426199;28;2222;-73
2023/01/06 19:05:50;;;;;;;;;;;9.20;99.90;;;8.14;100.00;96280.66;10429252;28;2243;-73
2023/01/06 19:10:53;;;;;;;;;;;9.20;99.90;;;8.12;100.00;96286.28;10427661;28;2204;-74
2023/01/06 19:15:55;;;;;;;;;;;9.20;99.90;;;8.04;100.00;96270.63;10439321;28;2200;-75
2023/01/06 19:20:58;;;;;;;;;;;9.10;99.90;;;8.01;100.00;96271.09;10440260;28;2213;-75
2023/01/06 19:26:01;;;;;;;;;;;9.10;99.90;;;8.01;100.00;96272.97;10440869;28;2189;-73
2023/01/06 19:31:04;;;;;;;;;;;9.10;99.90;;;7.98;100.00;96266.25;10434825;28;2145;-73
2023/01/06 19:36:07;;;;;;;;;;;9.10;99.90;;;7.88;100.00;96273.31;10438681;28;2292;-73
2023/01/06 19:41:10;;;;;;;;;;;9.00;99.90;;;7.61;100.00;96273.94;10442204;28;2182;-77
2023/01/06 19:46:13;;;;;;;;;;;8.80;99.90;;;7.63;100.00;96284.41;10450409;28;2153;-76
2023/01/06 19:51:15;;;;;;;;;;;8.80;99.90;;;7.72;100.00;96273.06;10442916;28;2164;-76
2023/01/06 19:56:18;;;;;;;;;;;8.80;99.90;;;7.78;100.00;96271.28;10436124;28;2193;-73
2023/01/06 20:01:21;;;;;;;;;;;8.80;99.90;;;7.84;100.00;96275.66;10444064;28;2259;-74
2023/01/06 20:06:24;;;;;;;;;;;8.80;99.90;;;7.85;100.00;96278.09;10447947;28;2193;-73
2023/01/06 20:11:27;;;;;;;;;;;8.90;99.90;;;7.88;100.00;96278.66;10443965;28;2197;-72
2023/01/06 20:16:31;;;;;;;;;;;8.90;99.90;;;7.78;100.00;96271.28;10443043;28;2218;-73
2023/01/06 20:21:36;;;;;;;;;;;8.90;99.90;;;7.80;100.00;96269.16;10443947;28;2742;-72
2023/01/06 20:26:39;;;;;;;;;;;8.90;99.90;;;7.81;100.00;96268.91;10446010;28;2230;-73
2023/01/06 20:31:41;;;;;;;;;;;8.80;99.90;;;7.78;100.00;96261.41;10439365;28;2198;-77
2023/01/06 20:36:44;;;;;;;;;;;8.90;99.90;;;7.78;100.00;96266.75;10433517;28;2334;-79
2023/01/06 20:41:47;;;;;;;;;;;8.90;99.90;;;7.88;100.00;96257.25;10442813;28;2152;-77
2023/01/06 20:46:50;;;;;;;;;;;8.90;99.90;;;7.91;100.00;96246.06;10443503;28;2209;-76
2023/01/06 20:51:52;;;;;;;;;;;8.90;99.90;;;7.88;100.00;96255.38;10440134;28;2174;-77
2023/01/06 20:56:55;;;;;;;;;;;8.90;99.90;;;7.79;100.00;96246.16;10443083;28;2154;-77
2023/01/06 21:01:58;;;;;;;;;;;8.90;99.90;;;7.77;100.00;96253.63;10442492;28;2308;-77
2023/01/06 21:07:02;;;;;;;;;;;8.90;99.90;;;7.83;100.00;96252.66;10445034;28;2262;-71
2023/01/06 21:12:04;;;;;;;;;;;8.90;99.90;;;7.90;100.00;96247.94;10443307;28;2161;-71
2023/01/06 21:17:07;;;;;;;;;;;8.90;99.90;;;7.92;100.00;96237.78;10440343;28;2318;-70
2023/01/06 21:22:10;;;;;;;;;;;8.90;99.90;;;7.89;100.00;96238.28;10442484;28;2151;-71
2023/01/06 21:27:12;;;;;;;;;;;8.90;99.90;;;7.84;100.00;96233.66;10438746;28;2321;-72
2023/01/06 21:32:15;;;;;;;;;;;8.90;99.90;;;7.90;100.00;96234.53;10439696;28;2144;-78
2023/01/06 21:37:18;;;;;;;;;;;8.90;99.90;;;7.81;100.00;96238.69;10437545;28;2289;-74
2023/01/06 21:47:41;;;;;;;;;;;8.90;99.90;;;7.84;100.00;96233.66;10426973;28;2161;-73
2023/01/06 21:52:45;;;;;;;;;;;8.90;99.90;;;7.89;100.00;96238.28;10426284;28;2251;-74
2023/01/06 21:57:48;;;;;;;;;;;8.90;99.90;;;7.88;100.00;96239.31;10439790;28;2240;-75
2023/01/06 22:02:51;;;;;;;;;;;8.90;99.90;;;7.86;100.00;96239.56;10430366;28;2082;-74
2023/01/06 22:07:54;;;;;;;;;;;8.90;99.90;;;7.92;100.00;96235.09;10431068;28;2124;-74
2023/01/06 22:12:58;;;;;;;;;;;8.90;99.90;;;7.86;100.00;96238.75;10428330;28;2213;-75
2023/01/06 22:18:01;;;;;;;;;;;8.90;99.90;;;7.91;100.00;96238.03;10437846;28;2115;-75
2023/01/06 22:23:04;;;;;;;;;;;8.90;99.90;;;7.87;100.00;96232.34;10426798;28;2155;-74
2023/01/06 22:28:06;;;;;;;;;;;8.90;99.90;;;7.90;100.00;96231.06;10433987;28;2249;-74
2023/01/06 22:33:09;;;;;;;;;;;8.90;99.90;;;7.91;100.00;96233.47;10427919;28;2193;-74
2023/01/06 22:38:12;;;;;;;;;;;8.90;99.90;;;7.82;100.00;96235.78;10435444;28;2322;-73
2023/01/06 22:43:16;;;;;;;;;;;8.90;99.90;;;7.85;100.00;96229.09;10428523;28;2184;-74
2023/01/06 22:48:19;;;;;;;;;;;8.90;99.90;;;7.85;100.00;96221.09;10436292;28;2194;-75
2023/01/06 22:53:22;;;;;;;;;;;8.90;99.90;;;7.85;100.00;96219.22;10457992;28;2162;-72
2023/01/06 22:58:25;;;;;;;;;;;8.90;99.90;;;7.81;100.00;96226.09;10438430;28;1398;-72
2023/01/06 23:03:27;;;;;;;;;;;8.80;99.90;;;7.84;100.00;96222.94;10432721;28;2213;-72
2023/01/06 23:08:30;;;;;;;;;;;8.90;99.90;;;7.76;100.00;96217.19;10438409;28;2225;-74
2023/01/06 23:13:33;;;;;;;;;;;8.80;99.90;;;7.66;100.00;96215.19;10431431;28;2242;-73
2023/01/06 23:18:35;;;;;;;;;;;8.70;99.90;;;7.70;100.00;96208.28;10441482;28;2234;-74
2023/01/06 23:23:38;;;;;;;;;;;8.80;99.90;;;7.76;100.00;96212.66;10448700;28;2164;-73
2023/01/06 23:28:40;;;;;;;;;;;8.70;99.90;;;7.74;100.00;96208.59;10447968;28;2130;-74
2023/01/06 23:33:43;;;;;;;;;;;8.70;99.90;;;7.78;100.00;96215.91;10445214;28;2214;-72
2023/01/06 23:38:46;;;;;;;;;;;8.80;99.90;;;7.76;100.00;96210.00;10443825;28;2179;-73
2023/01/06 23:43:48;;;;;;;;;;;8.80;99.90;;;7.86;100.00;96199.41;10443653;28;2314;-72
2023/01/06 23:48:51;;;;;;;;;;;8.80;99.90;;;7.81;100.00;96190.50;10438612;28;2304;-74
2023/01/06 23:53:54;;;;;;;;;;;8.50;99.90;;;7.77;100.00;96190.19;10435226;28;2523;-72
2023/01/06 23:58:56;;;;;;;;;;;8.80;99.90;;;7.75;100.00;96191.47;10432220;28;2162;-71
